createdAt,value
2023-01-26T00:04:47.255Z,102063.75
2023-01-26T00:09:50.017Z,102056.25
2023-01-26T00:14:52.750Z,102050.78
2023-01-26T00:19:58.875Z,102054.00
2023-01-26T00:25:01.673Z,102044.38
2023-01-26T00:30:05.136Z,102044.94
2023-01-26T00:35:10.408Z,102030.59
2023-01-26T00:40:13.667Z,102026.47
2023-01-26T00:45:16.728Z,102018.28
2023-01-26T00:50:22.479Z,102013.19
2023-01-26T00:55:32.090Z,102016.88
2023-01-26T01:00:38.607Z,102005.31
2023-01-26T01:05:42.887Z,101995.63
2023-01-26T01:10:48.578Z,101994.91
2023-01-26T01:15:51.439Z,102003.31
2023-01-26T01:20:55.652Z,101991.97
2023-01-26T01:25:58.799Z,101982.47
2023-01-26T01:31:05.354Z,101989.47
2023-01-26T01:36:12.197Z,101984.38
2023-01-26T01:41:15.911Z,101973.53
2023-01-26T01:46:27.796Z,101986.34
2023-01-26T01:51:35.732Z,101984.69
2023-01-26T01:56:41.882Z,101980.25
2023-01-26T02:01:44.662Z,101982.72
2023-01-26T02:06:51.327Z,101980.66
2023-01-26T02:11:54.241Z,101983.66
2023-01-26T02:16:57.346Z,101981.41
2023-01-26T02:22:08.805Z,101968.66
2023-01-26T02:27:13.368Z,101966.03
2023-01-26T02:32:16.386Z,101962.22
2023-01-26T02:37:19.475Z,101958.31
2023-01-26T02:42:43.348Z,101955.78
2023-01-26T02:47:46.378Z,101955.19
2023-01-26T02:52:49.247Z,101952.81
2023-01-26T02:57:59.337Z,101942.78
2023-01-26T03:03:03.002Z,101939.53
2023-01-26T03:08:07.401Z,101938.19
2023-01-26T03:13:14.231Z,101931.56
2023-01-26T03:18:36.115Z,101930.97
2023-01-26T03:23:56.671Z,101926.59
2023-01-26T03:29:02.256Z,101931.63
2023-01-26T03:34:05.431Z,101920.63
2023-01-26T03:39:08.696Z,101927.63
2023-01-26T03:44:30.362Z,101912.03
2023-01-26T03:49:51.713Z,101913.47
2023-01-26T03:55:13.020Z,101914.25
2023-01-26T04:00:17.794Z,101902.88
2023-01-26T04:05:39.308Z,101911.91
2023-01-26T04:10:42.670Z,101909.56
2023-01-26T04:16:06.061Z,101910.94
2023-01-26T04:21:26.327Z,101906.09
2023-01-26T04:26:34.804Z,101908.31
2023-01-26T04:31:41.613Z,101905.03
2023-01-26T04:36:45.127Z,101900.69
2023-01-26T04:41:49.858Z,101903.91
2023-01-26T04:46:55.029Z,101900.50
2023-01-26T04:51:58.355Z,101889.31
2023-01-26T04:57:02.370Z,101892.34
2023-01-26T05:02:06.790Z,101881.75
2023-01-26T05:07:09.721Z,101886.72
2023-01-26T05:12:27.052Z,101889.41
2023-01-26T05:17:54.180Z,101880.78
2023-01-26T05:23:12.357Z,101881.78
2023-01-26T05:28:38.035Z,101890.38
2023-01-26T05:33:42.263Z,101882.25
2023-01-26T05:38:48.282Z,101872.50
2023-01-26T05:43:53.433Z,101876.63
2023-01-26T05:49:14.476Z,101876.28
2023-01-26T05:54:17.698Z,101876.25
2023-01-26T05:59:20.762Z,101884.81
2023-01-26T06:04:25.337Z,101896.97
2023-01-26T06:09:30.759Z,101887.16
2023-01-26T06:15:03.623Z,101884.72
2023-01-26T06:20:14.745Z,101888.81
2023-01-26T06:25:20.941Z,101889.75
2023-01-26T06:30:23.867Z,101892.03
2023-01-26T06:35:28.207Z,101899.06
2023-01-26T06:40:34.130Z,101897.41
2023-01-26T06:45:37.913Z,101904.78
2023-01-26T06:50:42.404Z,101895.53
2023-01-26T06:55:49.453Z,101893.78
2023-01-26T07:01:09.583Z,101895.91
2023-01-26T07:06:14.028Z,101894.72
2023-01-26T07:11:17.371Z,101895.13
2023-01-26T07:16:20.565Z,101900.78
2023-01-26T07:21:24.963Z,101907.16
2023-01-26T07:26:27.703Z,101915.91
2023-01-26T07:31:30.531Z,101915.53
2023-01-26T07:36:34.753Z,101913.63
2023-01-26T07:41:37.536Z,101919.31
2023-01-26T07:46:59.516Z,101922.63
2023-01-26T07:52:04.808Z,101922.81
2023-01-26T07:57:08.294Z,101921.69
2023-01-26T08:02:11.541Z,101914.94
2023-01-26T08:07:31.157Z,101916.44
2023-01-26T08:12:40.152Z,101917.22
2023-01-26T08:17:44.137Z,101928.31
2023-01-26T08:22:48.257Z,101932.44
2023-01-26T08:28:06.494Z,101949.28
2023-01-26T08:33:12.334Z,101934.59
2023-01-26T08:38:19.346Z,101921.16
2023-01-26T08:43:25.143Z,101943.91
2023-01-26T08:48:28.400Z,101953.41
2023-01-26T08:53:43.137Z,101951.44
2023-01-26T08:58:46.257Z,101936.16
2023-01-26T09:03:49.083Z,101941.09
2023-01-26T09:08:53.165Z,101931.25
2023-01-26T09:13:57.293Z,101938.25
2023-01-26T09:19:00.309Z,101933.72
2023-01-26T09:24:04.711Z,101921.13
2023-01-26T09:29:07.458Z,101923.78
2023-01-26T09:34:10.236Z,101936.06
2023-01-26T09:39:14.715Z,101924.22
2023-01-26T09:44:21.563Z,101909.94
2023-01-26T09:49:30.199Z,101911.34
2023-01-26T09:54:39.309Z,101905.88
2023-01-26T09:59:49.883Z,101903.31
2023-01-26T10:04:58.893Z,101915.53
2023-01-26T10:10:06.908Z,101912.44
2023-01-26T10:15:32.538Z,101901.13
2023-01-26T10:20:38.101Z,101914.81
2023-01-26T10:25:44.250Z,101911.31
2023-01-26T10:30:48.807Z,101908.44
2023-01-26T10:35:52.024Z,101890.91
2023-01-26T10:40:56.499Z,101887.28
2023-01-26T10:45:59.383Z,101887.78
2023-01-26T10:51:16.269Z,101899.31
2023-01-26T10:56:20.489Z,101886.63
2023-01-26T11:01:27.570Z,101895.09
2023-01-26T11:06:31.353Z,101893.47
2023-01-26T11:11:35.405Z,101892.72
2023-01-26T11:16:39.065Z,101901.13
2023-01-26T11:21:48.089Z,101886.16
2023-01-26T11:27:29.879Z,101885.63
2023-01-26T11:32:43.550Z,101865.78
2023-01-26T11:37:52.457Z,101873.16
2023-01-26T11:43:28.241Z,101870.38
2023-01-26T11:48:40.534Z,101866.28
2023-01-26T11:54:01.286Z,101861.59
2023-01-26T11:59:13.360Z,101856.50
2023-01-26T12:04:20.135Z,101844.41
2023-01-26T12:09:32.729Z,101845.66
2023-01-26T12:14:43.519Z,101847.91
2023-01-26T12:19:53.715Z,101840.91
2023-01-26T12:25:18.576Z,101838.38
2023-01-26T12:30:35.486Z,101822.28
2023-01-26T12:36:03.865Z,101806.28
2023-01-26T12:41:12.646Z,101813.13
2023-01-26T12:46:18.381Z,101804.31
2023-01-26T12:51:26.677Z,101803.44
2023-01-26T12:56:36.001Z,101801.72
2023-01-26T13:01:43.222Z,101807.06
2023-01-26T13:06:46.033Z,101804.78
2023-01-26T13:11:51.668Z,101798.53
2023-01-26T13:16:56.043Z,101785.94
2023-01-26T13:21:58.902Z,101793.53
2023-01-26T13:27:01.668Z,101793.00
2023-01-26T13:32:55.006Z,101794.59
2023-01-26T13:38:05.936Z,101790.53
2023-01-26T13:43:26.162Z,101793.97
2023-01-26T13:48:48.698Z,101795.88
2023-01-26T13:53:59.675Z,101810.84
2023-01-26T13:59:08.494Z,101802.47
2023-01-26T14:04:16.021Z,101809.81
2023-01-26T14:09:20.569Z,101815.91
2023-01-26T14:14:27.073Z,101811.44
2023-01-26T14:19:29.991Z,101804.63
2023-01-26T14:24:36.045Z,101809.69
2023-01-26T14:29:40.842Z,101814.34
2023-01-26T14:34:53.625Z,101813.59
2023-01-26T14:40:22.871Z,101818.50
2023-01-26T14:45:31.140Z,101815.94
2023-01-26T14:50:35.009Z,101816.19
2023-01-26T14:55:39.142Z,101823.09
2023-01-26T15:00:41.990Z,101835.66
2023-01-26T15:05:45.945Z,101837.25
2023-01-26T15:11:19.151Z,101839.22
2023-01-26T15:16:24.009Z,101836.19
2023-01-26T15:21:33.838Z,101840.59
2023-01-26T15:26:38.296Z,101838.28
2023-01-26T15:31:42.930Z,101845.91
2023-01-26T15:36:50.138Z,101837.41
2023-01-26T15:42:12.289Z,101841.97
2023-01-26T15:47:15.119Z,101847.03
2023-01-26T15:52:20.369Z,101840.78
2023-01-26T15:57:24.430Z,101836.97
2023-01-26T16:02:29.603Z,101854.19
2023-01-26T16:07:32.341Z,101852.50
2023-01-26T16:12:36.869Z,101859.38
2023-01-26T16:17:39.622Z,101853.81
2023-01-26T16:22:42.423Z,101869.47
2023-01-26T16:27:46.534Z,101862.97
2023-01-26T16:32:50.513Z,101867.47
2023-01-26T16:37:53.314Z,101874.38
2023-01-26T16:42:57.463Z,101879.03
2023-01-26T16:48:01.206Z,101884.91
2023-01-26T16:53:15.640Z,101886.53
2023-01-26T16:58:19.979Z,101897.81
2023-01-26T17:03:23.089Z,101893.88
2023-01-26T17:08:25.902Z,101897.59
2023-01-26T17:13:31.206Z,101904.34
2023-01-26T17:18:34.680Z,101911.03
2023-01-26T17:23:41.474Z,101910.28
2023-01-26T17:28:46.363Z,101919.78
2023-01-26T17:33:51.741Z,101926.34
2023-01-26T17:38:54.494Z,101917.72
2023-01-26T17:43:58.594Z,101919.19
2023-01-26T17:49:01.348Z,101922.22
2023-01-26T17:54:04.234Z,101918.78
2023-01-26T17:59:08.463Z,101908.53
2023-01-26T18:04:11.226Z,101918.25
2023-01-26T18:09:14.061Z,101914.81
2023-01-26T18:14:18.227Z,101918.66
2023-01-26T18:19:20.974Z,101918.97
2023-01-26T18:24:23.907Z,101928.25
2023-01-26T18:29:28.036Z,101932.22
2023-01-26T18:34:30.759Z,101931.63
2023-01-26T18:39:33.560Z,101945.78
2023-01-26T18:44:37.728Z,101951.38
2023-01-26T18:49:40.464Z,101952.47
2023-01-26T18:54:43.635Z,101952.56
2023-01-26T18:59:48.144Z,101948.97
2023-01-26T19:04:53.549Z,101959.50
2023-01-26T19:09:57.952Z,101955.19
2023-01-26T19:15:02.167Z,101956.47
2023-01-26T19:20:05.800Z,101964.75
2023-01-26T19:25:11.639Z,101976.59
2023-01-26T19:30:16.728Z,101972.34
2023-01-26T19:35:20.040Z,101971.81
2023-01-26T19:40:23.481Z,101985.28
2023-01-26T19:45:28.502Z,101981.34
2023-01-26T19:50:35.670Z,101978.38
2023-01-26T19:55:38.646Z,101980.91
2023-01-26T20:00:45.220Z,101984.81
2023-01-26T20:05:48.067Z,101987.78
2023-01-26T20:10:51.262Z,101997.31
2023-01-26T20:15:58.246Z,101992.09
2023-01-26T20:21:01.219Z,101994.34
2023-01-26T20:26:08.676Z,102005.41
2023-01-26T20:31:15.650Z,102000.66
2023-01-26T20:36:22.004Z,102003.81
2023-01-26T20:41:28.406Z,101999.69
2023-01-26T20:46:42.558Z,102005.34
2023-01-26T20:51:52.317Z,101998.22
2023-01-26T20:56:57.538Z,102004.28
2023-01-26T21:02:01.809Z,102010.16
2023-01-26T21:07:04.768Z,102007.66
2023-01-26T21:12:07.659Z,102004.56
2023-01-26T21:17:11.871Z,102010.94
2023-01-26T21:22:14.977Z,102003.88
2023-01-26T21:27:18.344Z,102013.25
2023-01-26T21:32:36.044Z,102013.28
2023-01-26T21:37:38.989Z,102010.47
2023-01-26T21:42:41.953Z,102020.84
2023-01-26T21:48:06.108Z,102021.09
2023-01-26T21:53:08.862Z,102017.81
2023-01-26T21:58:29.044Z,102019.13
2023-01-26T22:03:33.412Z,102016.84
2023-01-26T22:08:36.243Z,102021.72
2023-01-26T22:13:39.122Z,102016.94
2023-01-26T22:18:43.851Z,102018.00
2023-01-26T22:23:47.018Z,102017.00
2023-01-26T22:28:54.113Z,102020.91
2023-01-26T22:34:00.227Z,102007.91
2023-01-26T22:39:02.950Z,102010.44
2023-01-26T22:44:06.144Z,102006.38
2023-01-26T22:49:11.017Z,102004.97
2023-01-26T22:54:13.739Z,102011.88
2023-01-26T22:59:16.453Z,102010.63
2023-01-26T23:04:20.789Z,102019.56
2023-01-26T23:09:23.619Z,102017.16
2023-01-26T23:14:35.237Z,102019.03
2023-01-26T23:19:39.340Z,102021.22
2023-01-26T23:25:02.109Z,102015.06
2023-01-26T23:30:05.678Z,102014.03
2023-01-26T23:35:10.325Z,102021.38
2023-01-26T23:40:14.984Z,102019.88
2023-01-26T23:45:18.025Z,102025.59
2023-01-26T23:50:22.314Z,102032.84
2023-01-26T23:55:25.078Z,102031.91
